Portada
METAR-TAF:

METAR-TAF

Aeroports :

Humberside, Anglaterra

latitud: 53-35N, longitud: 000-21W, altitud: 31 m

Observació

L'informe es va fer fa 48 minuts, a les 08:20 UTC
Vent 18 kt del Sud-Oest
Temperatura 12°C
Humitat 82%
Pressió 990 hPa
Visibilitat 10 km o més

METAR: EGNJ 060820Z AUTO 23018KT 9999 SCT011/// BKN016/// 12/09 Q0990

Hora: 10:08 (09:08 UTC)

Pronòstic

L'informe es va fer fa 1 hora i 2 minuts, a les 08:06 UTC
Pronòstic vàlid del 06 a les 09 UTC al 06 a les 18 UTC
Vent 15 kt del Oest
Visibilitat 10 km o més
Núvols disperses a una alçada de 3500 ft
Temporalment
l' 06 a les 09 UTC al 06 a les 18 UTC
Vent 18 kt del Oest amb ràfegues de 28 kt
Visibilitat: 7000 m
Cel ennuvolat a una alçada de 1200 ft, Cumulonimbus.
xàfecs de pluja
Probabilitat 30% :
Temporalment
l' 06 a les 09 UTC al 06 a les 18 UTC
Visibilitat: 4000 m
xàfecs de pluja

TAF: EGNJ 060806Z 0609/0618 27015KT 9999 SCT035 TEMPO 0609/0618 28018G28KT 7000 SHRA BKN012CB PROB30 TEMPO 0609/0618 4000 +SHRA

Observacions i pronòstics meteorològics de més de 4000 aeroports (METAR i TAF).

Les estacions disponibles són els punts grocs i vermells al mapa.

Posi el ratolí al punt desitjat per veure el nom de l'estació.

Feu clic per veure les observacions i els pronòstics meteorològics.

Per canviar el mapa: feu clic els botons verds amb una creu de color negre per apropar; al botó verd amb un guió per allunyar la imatge; o en les fletxes verdes per a mapes adjacents.


METAR-TAF: